createdAt,value
2023-04-25T00:00:46.926Z,3.11
2023-04-25T00:01:46.891Z,3.15
2023-04-25T00:02:47.116Z,3.12
2023-04-25T00:03:47.210Z,3.15
2023-04-25T00:04:46.964Z,3.14
2023-04-25T00:05:46.903Z,3.20
2023-04-25T00:06:46.778Z,3.14
2023-04-25T00:07:46.746Z,3.15
2023-04-25T00:08:46.720Z,3.09
2023-04-25T00:09:46.679Z,3.12
2023-04-25T00:10:46.665Z,3.15
2023-04-25T00:11:46.613Z,3.08
2023-04-25T00:12:46.629Z,3.07
2023-04-25T00:13:46.643Z,3.08
2023-04-25T00:14:46.541Z,3.07
2023-04-25T00:15:46.538Z,3.08
2023-04-25T00:16:46.468Z,3.03
2023-04-25T00:18:52.892Z,0.50
2023-04-25T00:19:52.914Z,0.50
2023-04-25T00:20:52.961Z,0.50
2023-04-25T00:21:52.952Z,0.50
2023-04-25T00:22:53.006Z,0.50
2023-04-25T00:23:53.122Z,0.50
2023-04-25T00:24:53.031Z,0.51
2023-04-25T00:25:53.063Z,0.51
2023-04-25T00:26:53.063Z,0.50
2023-04-25T00:27:53.092Z,0.51
2023-04-25T00:28:53.125Z,0.51
2023-04-25T00:29:53.147Z,0.51
2023-04-25T00:30:53.138Z,0.50
2023-04-25T00:31:53.247Z,0.51
2023-04-25T00:32:53.217Z,0.52
2023-04-25T00:33:53.353Z,0.51
2023-04-25T00:34:53.274Z,0.51
2023-04-25T00:35:53.253Z,0.50
2023-04-25T00:36:53.289Z,0.51
2023-04-25T00:37:53.280Z,0.52
2023-04-25T00:38:53.295Z,0.51
2023-04-25T00:39:53.341Z,0.50
2023-04-25T00:40:53.331Z,0.51
2023-04-25T00:41:53.347Z,0.50
2023-04-25T00:42:53.402Z,0.51
2023-04-25T00:43:53.581Z,0.51
2023-04-25T00:44:53.401Z,0.52
2023-04-25T00:45:53.438Z,0.50
2023-04-25T00:46:53.475Z,0.51
2023-04-25T00:47:53.503Z,0.52
2023-04-25T00:48:53.506Z,0.51
2023-04-25T00:49:53.497Z,0.51
2023-04-25T00:50:53.525Z,0.51
2023-04-25T00:51:53.554Z,0.51
2023-04-25T00:52:53.570Z,0.52
2023-04-25T00:53:53.778Z,0.51
2023-04-25T00:54:53.576Z,0.51
2023-04-25T00:55:53.631Z,0.52
2023-04-25T00:56:53.674Z,0.50
2023-04-25T00:57:53.722Z,0.52
2023-04-25T00:58:53.803Z,0.51
2023-04-25T00:59:53.894Z,0.51
2023-04-25T01:00:54.082Z,0.51
2023-04-25T01:01:54.091Z,0.51
2023-04-25T01:02:54.276Z,0.51
2023-04-25T01:03:54.566Z,0.50
2023-04-25T01:04:54.333Z,0.51
2023-04-25T01:05:54.409Z,0.52
2023-04-25T01:06:54.479Z,0.53
2023-04-25T01:07:54.577Z,0.52
2023-04-25T01:08:54.682Z,0.51
2023-04-25T01:09:54.727Z,0.51
2023-04-25T01:10:54.823Z,0.51
2023-04-25T01:11:54.927Z,0.50
2023-04-25T01:12:55.015Z,0.51
2023-04-25T01:13:55.104Z,0.51
2023-04-25T01:14:55.161Z,0.51
2023-04-25T01:15:55.254Z,0.51
2023-04-25T01:16:55.400Z,0.51
2023-04-25T01:17:55.510Z,0.50
2023-04-25T01:18:55.498Z,0.50
2023-04-25T01:19:55.612Z,0.51
2023-04-25T01:20:55.697Z,0.51
2023-04-25T01:21:55.753Z,0.51
2023-04-25T01:22:55.921Z,0.51
2023-04-25T01:23:55.954Z,0.50
2023-04-25T01:24:56.025Z,0.50
2023-04-25T01:25:56.125Z,0.50
2023-04-25T01:26:56.200Z,0.51
2023-04-25T01:27:56.264Z,0.51
2023-04-25T01:28:56.430Z,0.51
2023-04-25T01:29:56.460Z,0.52
2023-04-25T01:30:56.507Z,0.52
2023-04-25T01:31:56.660Z,0.51
2023-04-25T01:32:56.778Z,0.51
2023-04-25T01:33:56.799Z,0.51
2023-04-25T01:34:56.864Z,0.51
2023-04-25T01:35:56.973Z,0.52
2023-04-25T01:36:58.606Z,0.51
2023-04-25T01:37:57.126Z,0.53
2023-04-25T01:38:57.212Z,0.52
2023-04-25T01:39:57.284Z,0.51
2023-04-25T01:40:57.375Z,0.51
2023-04-25T01:41:57.728Z,0.51
2023-04-25T01:42:57.544Z,0.51
2023-04-25T01:43:57.612Z,0.50
2023-04-25T01:44:57.746Z,0.51
2023-04-25T01:45:57.874Z,0.52
2023-04-25T01:46:57.881Z,0.51
2023-04-25T01:47:58.170Z,0.51
2023-04-25T01:48:58.020Z,0.52
2023-04-25T01:49:58.127Z,0.52
2023-04-25T01:50:58.204Z,0.51
2023-04-25T01:51:58.269Z,0.52
2023-04-25T01:52:58.369Z,0.51
2023-04-25T01:53:59.880Z,0.51
2023-04-25T01:54:58.556Z,0.51
2023-04-25T01:55:58.626Z,0.51
2023-04-25T01:56:58.737Z,0.51
2023-04-25T01:57:58.803Z,0.51
2023-04-25T01:58:58.848Z,0.51
2023-04-25T01:59:58.948Z,0.50
2023-04-25T02:00:59.150Z,0.51
2023-04-25T02:01:59.153Z,0.51
2023-04-25T02:02:59.354Z,0.52
2023-04-25T02:03:59.423Z,0.51
2023-04-25T02:04:59.406Z,0.50
2023-04-25T02:05:59.473Z,0.50
2023-04-25T02:06:59.516Z,0.51
2023-04-25T02:07:59.653Z,0.52
2023-04-25T02:08:59.696Z,0.51
2023-04-25T02:09:59.812Z,0.50
2023-04-25T02:10:59.881Z,0.51
2023-04-25T02:12:00.042Z,0.51
2023-04-25T02:13:00.146Z,0.51
2023-04-25T02:14:00.172Z,0.50
2023-04-25T02:15:00.269Z,0.52
2023-04-25T02:16:00.467Z,0.52
2023-04-25T02:17:00.522Z,0.51
2023-04-25T02:18:00.519Z,0.51
2023-04-25T02:19:00.601Z,0.51
2023-04-25T02:20:00.697Z,0.52
2023-04-25T02:21:00.776Z,0.51
2023-04-25T02:22:00.857Z,0.53
2023-04-25T02:23:00.937Z,0.51
2023-04-25T02:24:01.043Z,0.51
2023-04-25T02:25:01.111Z,0.51
2023-04-25T02:26:01.235Z,0.52
2023-04-25T02:27:01.286Z,0.53
2023-04-25T02:28:01.386Z,0.51
2023-04-25T02:29:01.445Z,0.50
2023-04-25T02:30:01.555Z,0.51
2023-04-25T02:31:01.636Z,0.50
2023-04-25T02:32:01.712Z,0.51
2023-04-25T02:33:01.813Z,0.52
2023-04-25T02:34:01.871Z,0.51
2023-04-25T02:35:01.953Z,0.51
2023-04-25T02:36:02.051Z,0.51
2023-04-25T02:37:02.143Z,0.51
2023-04-25T02:38:02.235Z,0.51
2023-04-25T02:39:02.332Z,0.51
2023-04-25T02:40:02.405Z,0.50
2023-04-25T02:41:02.480Z,0.51
2023-04-25T02:42:02.536Z,0.50
2023-04-25T02:43:03.568Z,0.50
2023-04-25T02:44:02.719Z,0.51
2023-04-25T02:45:02.848Z,0.51
2023-04-25T02:46:02.906Z,0.51
2023-04-25T02:47:03.055Z,0.51
2023-04-25T02:48:03.116Z,0.50
2023-04-25T02:49:03.181Z,0.52
2023-04-25T02:50:03.256Z,0.50
2023-04-25T02:51:03.325Z,0.50
2023-04-25T02:52:03.402Z,0.51
2023-04-25T02:53:03.450Z,0.52
2023-04-25T02:54:03.513Z,0.51
2023-04-25T02:55:03.625Z,0.52
2023-04-25T02:56:03.719Z,0.51
2023-04-25T02:57:03.823Z,0.52
2023-04-25T02:58:03.881Z,0.50
2023-04-25T02:59:03.924Z,0.52
2023-04-25T03:00:04.036Z,0.51
2023-04-25T03:01:04.191Z,0.51
2023-04-25T03:02:04.188Z,0.51
2023-04-25T03:03:04.368Z,0.51
2023-04-25T03:04:04.416Z,0.52
2023-04-25T03:05:04.489Z,0.51
2023-04-25T03:06:04.556Z,0.51
2023-04-25T03:07:04.698Z,0.52
2023-04-25T03:08:04.733Z,0.51
2023-04-25T03:09:04.829Z,0.52
2023-04-25T03:10:04.934Z,0.51
2023-04-25T03:11:05.036Z,0.51
2023-04-25T03:12:05.175Z,0.50
2023-04-25T03:13:05.204Z,0.50
2023-04-25T03:14:05.298Z,0.50
2023-04-25T03:15:05.452Z,0.50
2023-04-25T03:16:05.556Z,0.51
2023-04-25T03:17:05.608Z,0.50
2023-04-25T03:18:05.742Z,0.51
2023-04-25T03:19:05.788Z,0.51
2023-04-25T03:20:05.873Z,0.52
2023-04-25T03:21:06.001Z,0.51
2023-04-25T03:22:06.069Z,0.51
2023-04-25T03:23:06.159Z,0.50
2023-04-25T03:24:06.265Z,0.52
2023-04-25T03:25:06.353Z,0.51
2023-04-25T03:26:06.461Z,0.51
2023-04-25T03:27:06.613Z,0.51
2023-04-25T03:28:06.635Z,0.52
2023-04-25T03:29:06.732Z,0.51
2023-04-25T03:30:06.831Z,0.51
2023-04-25T03:31:06.934Z,0.51
2023-04-25T03:32:07.050Z,0.51
2023-04-25T03:33:07.160Z,0.50
2023-04-25T03:34:07.189Z,0.51
2023-04-25T03:35:07.343Z,0.51
2023-04-25T03:36:07.384Z,0.50
2023-04-25T03:37:07.501Z,0.51
2023-04-25T03:38:07.594Z,0.51
2023-04-25T03:39:07.687Z,0.52
2023-04-25T03:40:07.790Z,0.51
2023-04-25T03:41:07.865Z,0.51
2023-04-25T03:42:07.982Z,0.51
2023-04-25T03:43:08.093Z,0.52
2023-04-25T03:44:08.152Z,0.51
2023-04-25T03:45:08.252Z,0.51
2023-04-25T03:46:08.419Z,0.51
2023-04-25T03:47:08.441Z,0.51
2023-04-25T03:48:08.570Z,0.51
2023-04-25T03:49:08.652Z,0.51
2023-04-25T03:50:08.753Z,0.51
2023-04-25T03:51:08.786Z,0.51
2023-04-25T03:52:08.919Z,0.51
2023-04-25T03:53:08.987Z,0.51
2023-04-25T03:54:09.085Z,0.52
2023-04-25T03:55:09.176Z,0.52
2023-04-25T03:56:09.283Z,0.51
2023-04-25T03:57:09.397Z,0.51
2023-04-25T03:58:09.487Z,0.50
2023-04-25T03:59:09.567Z,0.52
2023-04-25T04:00:09.661Z,0.52
2023-04-25T04:01:09.744Z,0.52
2023-04-25T04:02:09.894Z,0.51
2023-04-25T04:03:10.152Z,0.53
2023-04-25T04:04:10.206Z,0.52
2023-04-25T04:05:10.302Z,0.51
2023-04-25T04:06:10.202Z,0.52
2023-04-25T04:07:10.242Z,0.51
2023-04-25T04:08:10.312Z,0.51
2023-04-25T04:09:10.341Z,0.51
2023-04-25T04:10:10.444Z,0.50
2023-04-25T04:11:10.478Z,0.51
2023-04-25T04:12:10.548Z,0.51
2023-04-25T04:13:10.596Z,0.51
2023-04-25T04:14:10.673Z,0.51
2023-04-25T04:15:10.748Z,0.51
2023-04-25T04:16:10.958Z,0.51
2023-04-25T04:17:10.856Z,0.52
2023-04-25T04:18:10.942Z,0.51
2023-04-25T04:19:10.973Z,0.51
2023-04-25T04:20:10.980Z,0.52
2023-04-25T04:21:11.008Z,0.51
2023-04-25T04:22:11.081Z,0.51
2023-04-25T04:23:11.107Z,0.50
2023-04-25T04:24:11.181Z,0.51
2023-04-25T04:25:11.213Z,0.52
2023-04-25T04:26:11.283Z,0.51
2023-04-25T04:27:11.356Z,0.51
2023-04-25T04:28:11.409Z,0.50
2023-04-25T04:29:11.466Z,0.51
2023-04-25T04:30:11.541Z,0.51
2023-04-25T04:31:11.637Z,0.51
2023-04-25T04:32:11.659Z,0.52
2023-04-25T04:33:11.768Z,0.52
2023-04-25T04:34:11.814Z,0.51
2023-04-25T04:35:11.872Z,0.51
2023-04-25T04:36:11.941Z,0.51
2023-04-25T04:37:12.007Z,0.51
2023-04-25T04:38:12.105Z,0.52
2023-04-25T04:39:12.144Z,0.50
2023-04-25T04:40:12.238Z,0.52
2023-04-25T04:41:12.326Z,0.51
2023-04-25T04:42:12.405Z,0.51
2023-04-25T04:43:12.476Z,0.51
2023-04-25T04:44:12.550Z,0.51
2023-04-25T04:45:12.611Z,0.51
2023-04-25T04:46:12.623Z,0.52
2023-04-25T04:47:12.669Z,0.51
2023-04-25T04:48:12.782Z,0.52
2023-04-25T04:49:12.725Z,0.51
2023-04-25T04:50:12.797Z,0.50
2023-04-25T04:51:12.824Z,0.51
2023-04-25T04:52:12.895Z,0.51
2023-04-25T04:53:12.878Z,0.52
2023-04-25T04:54:12.891Z,0.51
2023-04-25T04:55:13.643Z,0.52
2023-04-25T04:56:13.028Z,0.52
2023-04-25T04:57:13.093Z,0.52
2023-04-25T04:58:13.158Z,0.52
2023-04-25T04:59:13.267Z,0.51
2023-04-25T05:00:13.328Z,0.52
2023-04-25T05:01:13.387Z,0.51
2023-04-25T05:02:13.491Z,0.51
2023-04-25T05:03:13.646Z,0.53
2023-04-25T05:04:13.806Z,0.52
2023-04-25T05:05:13.693Z,0.51
2023-04-25T05:06:13.711Z,0.52
2023-04-25T05:07:13.778Z,0.52
2023-04-25T05:08:13.861Z,0.52
2023-04-25T05:09:13.948Z,0.51
2023-04-25T05:10:13.976Z,0.50
2023-04-25T05:11:14.038Z,0.50
2023-04-25T05:12:14.099Z,0.51
2023-04-25T05:13:14.112Z,0.52
2023-04-25T05:14:14.176Z,0.51
2023-04-25T05:15:14.237Z,0.52
2023-04-25T05:16:14.396Z,0.52
2023-04-25T05:17:14.331Z,0.52
2023-04-25T05:18:14.431Z,0.52
2023-04-25T05:19:14.474Z,0.52
2023-04-25T05:20:14.484Z,0.51
2023-04-25T05:21:14.533Z,0.50
2023-04-25T05:22:14.586Z,0.52
2023-04-25T05:23:14.600Z,0.52
2023-04-25T05:24:14.675Z,0.51
2023-04-25T05:25:14.724Z,0.51
2023-04-25T05:26:15.016Z,0.51
2023-04-25T05:27:14.882Z,0.51
2023-04-25T05:28:14.937Z,0.52
2023-04-25T05:29:15.006Z,0.50
2023-04-25T05:30:15.009Z,0.50
2023-04-25T05:31:15.048Z,0.51
2023-04-25T05:32:15.264Z,0.52
2023-04-25T05:33:15.161Z,0.52
2023-04-25T05:34:15.228Z,0.51
2023-04-25T05:35:15.674Z,0.52
2023-04-25T05:36:15.345Z,0.52
2023-04-25T05:37:15.381Z,0.52
2023-04-25T05:38:15.454Z,0.54
2023-04-25T05:39:15.522Z,0.55
2023-04-25T05:40:15.691Z,0.57
2023-04-25T05:41:15.708Z,0.59
2023-04-25T05:42:15.839Z,0.60
2023-04-25T05:43:15.887Z,0.60
2023-04-25T05:44:15.957Z,0.64
2023-04-25T05:45:16.176Z,0.64
2023-04-25T05:46:16.175Z,0.71
2023-04-25T05:47:16.229Z,0.71
2023-04-25T05:48:16.305Z,0.73
2023-04-25T05:49:18.222Z,0.75
2023-04-25T05:50:16.394Z,0.79
2023-04-25T05:51:16.412Z,0.79
2023-04-25T05:52:16.421Z,0.80
2023-04-25T05:53:16.472Z,0.80
2023-04-25T05:54:16.454Z,0.89
2023-04-25T05:55:16.536Z,0.90
2023-04-25T05:56:16.523Z,0.91
2023-04-25T05:57:16.533Z,0.92
2023-04-25T05:58:16.584Z,1.06
2023-04-25T05:59:16.549Z,1.10
2023-04-25T06:00:16.577Z,1.10
2023-04-25T06:01:16.582Z,1.19
2023-04-25T06:02:16.662Z,1.28
2023-04-25T06:03:20.242Z,1.33
2023-04-25T06:04:16.832Z,1.34
2023-04-25T06:05:16.848Z,1.35
2023-04-25T06:06:16.639Z,1.38
2023-04-25T06:07:16.667Z,1.44
2023-04-25T06:08:16.675Z,1.54
2023-04-25T06:09:16.673Z,1.59
2023-04-25T06:10:16.714Z,1.62
2023-04-25T06:11:16.723Z,1.68
2023-04-25T06:12:16.721Z,1.73
2023-04-25T06:13:16.744Z,1.77
2023-04-25T06:14:16.752Z,1.86
2023-04-25T06:15:28.053Z,1.90
2023-04-25T06:16:17.797Z,1.91
2023-04-25T06:17:16.764Z,1.93
2023-04-25T06:18:16.773Z,2.03
2023-04-25T06:19:16.761Z,2.15
2023-04-25T06:20:17.142Z,2.48
2023-04-25T06:21:16.799Z,2.52
2023-04-25T06:22:16.789Z,2.61
2023-04-25T06:23:16.814Z,2.65
2023-04-25T06:24:16.830Z,2.75
2023-04-25T06:25:16.842Z,2.81
2023-04-25T06:26:16.838Z,2.86
2023-04-25T06:27:17.152Z,2.97
2023-04-25T06:28:16.872Z,2.92
2023-04-25T06:29:16.882Z,3.07
2023-04-25T06:30:16.915Z,3.18
2023-04-25T06:31:16.885Z,3.14
2023-04-25T06:32:16.922Z,3.21
2023-04-25T06:33:16.902Z,3.26
2023-04-25T06:34:16.908Z,3.23
2023-04-25T06:35:16.911Z,3.37
2023-04-25T06:36:16.908Z,3.04
2023-04-25T06:37:16.927Z,1.64
2023-04-25T06:38:16.959Z,1.94
2023-04-25T06:39:16.935Z,1.28
2023-04-25T06:40:16.961Z,1.55
2023-04-25T06:41:16.981Z,1.17
2023-04-25T06:42:16.983Z,1.06
2023-04-25T06:43:17.057Z,0.85
2023-04-25T06:44:17.046Z,0.64
2023-04-25T06:45:17.127Z,0.80
2023-04-25T06:46:17.240Z,0.50
2023-04-25T06:47:17.273Z,0.46
2023-04-25T06:48:17.344Z,0.50
2023-04-25T06:49:17.431Z,0.44
2023-04-25T06:50:17.706Z,0.48
2023-04-25T06:51:17.533Z,0.50
2023-04-25T06:52:17.588Z,0.50
2023-04-25T06:53:17.643Z,0.50
2023-04-25T06:54:17.671Z,0.55
2023-04-25T06:55:17.745Z,0.79
2023-04-25T06:56:17.783Z,1.07
2023-04-25T06:57:17.780Z,1.30
2023-04-25T06:58:17.830Z,1.68
2023-04-25T06:59:17.892Z,1.94
2023-04-25T07:00:17.963Z,2.16
2023-04-25T07:01:18.003Z,2.28
2023-04-25T07:02:19.583Z,2.53
2023-04-25T07:03:18.298Z,2.77
2023-04-25T07:04:18.283Z,2.99
2023-04-25T07:05:19.260Z,3.25
2023-04-25T07:06:18.352Z,3.49
2023-04-25T07:07:18.595Z,3.72
2023-04-25T07:08:18.469Z,3.91
2023-04-25T07:09:18.559Z,4.06
2023-04-25T07:10:18.556Z,4.27
2023-04-25T07:11:18.601Z,4.43
2023-04-25T07:12:18.651Z,4.62
2023-04-25T07:13:18.709Z,4.74
2023-04-25T07:14:18.726Z,4.96
2023-04-25T07:15:18.788Z,5.07
2023-04-25T07:16:18.825Z,5.34
2023-04-25T07:17:18.815Z,5.62
2023-04-25T07:18:18.839Z,5.85
2023-04-25T07:19:18.862Z,5.98
2023-04-25T07:20:18.895Z,6.25
2023-04-25T07:21:18.916Z,6.36
2023-04-25T07:22:18.960Z,6.65
2023-04-25T07:23:18.900Z,6.81
2023-04-25T07:24:18.986Z,7.12
2023-04-25T07:25:19.406Z,7.29
2023-04-25T07:26:18.961Z,7.41
2023-04-25T07:27:18.960Z,7.84
2023-04-25T07:28:19.612Z,7.84
2023-04-25T07:29:19.045Z,7.80
2023-04-25T07:30:19.052Z,8.04
2023-04-25T07:31:19.083Z,8.27
2023-04-25T07:32:19.122Z,8.48
2023-04-25T07:33:19.135Z,8.49
2023-04-25T07:34:19.088Z,8.74
2023-04-25T07:35:19.137Z,8.81
2023-04-25T07:36:19.145Z,9.19
2023-04-25T07:37:19.199Z,9.63
2023-04-25T07:38:19.245Z,9.79
2023-04-25T07:39:19.233Z,9.95
2023-04-25T07:40:19.228Z,10.54
2023-04-25T07:41:19.715Z,10.98
2023-04-25T07:42:19.231Z,11.15
2023-04-25T07:43:19.249Z,11.52
2023-04-25T07:44:19.298Z,12.17
2023-04-25T07:45:19.293Z,10.88
2023-04-25T07:46:19.768Z,3.91
2023-04-25T07:47:19.346Z,3.40
2023-04-25T07:48:19.374Z,5.25
2023-04-25T07:49:19.418Z,6.95
2023-04-25T07:50:19.498Z,8.17
2023-04-25T07:51:19.507Z,8.17
2023-04-25T07:52:19.513Z,8.46
2023-04-25T07:53:19.786Z,8.60
2023-04-25T07:54:19.543Z,8.89
2023-04-25T07:55:19.567Z,9.03
2023-04-25T07:56:19.582Z,9.55
2023-04-25T07:57:19.634Z,9.68
2023-04-25T07:58:19.618Z,10.11
2023-04-25T07:59:19.649Z,10.15
2023-04-25T08:00:19.714Z,10.72
2023-04-25T08:01:19.805Z,11.13
2023-04-25T08:02:19.822Z,11.58
2023-04-25T08:03:19.977Z,11.96
2023-04-25T08:04:20.170Z,12.02
2023-04-25T08:05:22.472Z,13.55
2023-04-25T08:06:20.147Z,13.91
2023-04-25T08:07:20.030Z,14.14
2023-04-25T08:08:20.040Z,13.93
2023-04-25T08:09:20.025Z,14.11
2023-04-25T08:10:20.047Z,14.19
2023-04-25T08:11:20.079Z,13.71
2023-04-25T08:12:21.611Z,13.28
2023-04-25T08:13:20.089Z,9.37
2023-04-25T08:14:20.092Z,9.90
2023-04-25T08:15:20.098Z,9.78
2023-04-25T08:16:20.205Z,9.34
2023-04-25T08:17:20.184Z,8.76
2023-04-25T08:18:20.242Z,8.20
2023-04-25T08:19:20.172Z,8.16
2023-04-25T08:20:20.155Z,7.95
2023-04-25T08:21:20.163Z,7.84
2023-04-25T08:22:20.194Z,7.34
2023-04-25T08:23:20.197Z,4.63
2023-04-25T08:24:20.176Z,4.70
2023-04-25T08:25:20.211Z,2.73
2023-04-25T08:26:20.208Z,2.83
2023-04-25T08:27:20.247Z,3.99
2023-04-25T08:28:20.254Z,3.73
2023-04-25T08:29:20.244Z,3.95
2023-04-25T08:30:20.249Z,3.68
2023-04-25T08:31:20.310Z,2.08
2023-04-25T08:32:20.277Z,2.15
2023-04-25T08:33:20.392Z,3.17
2023-04-25T08:34:20.296Z,3.51
2023-04-25T08:35:20.320Z,3.38
2023-04-25T08:36:31.628Z,1.57
2023-04-25T08:37:21.364Z,1.12
2023-04-25T08:38:20.372Z,0.90
2023-04-25T08:39:20.507Z,0.94
2023-04-25T08:40:20.380Z,0.67
2023-04-25T08:41:20.765Z,0.85
2023-04-25T08:42:20.442Z,0.79
2023-04-25T08:43:20.463Z,0.74
2023-04-25T08:44:20.536Z,0.65
2023-04-25T08:45:20.670Z,0.55
2023-04-25T08:46:20.712Z,0.53
2023-04-25T08:47:20.725Z,0.62
2023-04-25T08:48:20.818Z,0.48
2023-04-25T08:49:20.872Z,0.44
2023-04-25T08:50:21.140Z,0.53
2023-04-25T08:51:22.944Z,0.44
2023-04-25T08:52:21.118Z,0.50
2023-04-25T08:53:21.200Z,0.57
2023-04-25T08:54:34.456Z,0.48
2023-04-25T08:55:22.298Z,0.43
2023-04-25T08:56:21.303Z,0.34
2023-04-25T08:57:21.311Z,0.37
2023-04-25T08:58:21.321Z,0.34
2023-04-25T08:59:21.669Z,0.34
2023-04-25T09:00:21.392Z,0.41
2023-04-25T09:01:21.436Z,0.50
2023-04-25T09:02:21.526Z,0.45
2023-04-25T09:03:21.738Z,0.49
2023-04-25T09:04:21.637Z,0.58
2023-04-25T09:05:21.925Z,0.59
2023-04-25T09:06:21.703Z,0.55
2023-04-25T09:07:21.770Z,0.50
2023-04-25T09:08:21.850Z,0.50
2023-04-25T09:09:21.971Z,0.58
2023-04-25T09:10:22.065Z,0.55
2023-04-25T09:11:23.522Z,0.50
2023-04-25T09:12:22.118Z,0.51
2023-04-25T09:13:22.226Z,0.54
2023-04-25T09:14:22.288Z,0.54
2023-04-25T09:15:22.321Z,0.51
2023-04-25T09:16:22.453Z,0.50
2023-04-25T09:17:22.492Z,0.54
2023-04-25T09:19:31.996Z,0.57
2023-04-25T09:20:23.578Z,0.58
2023-04-25T09:21:22.580Z,0.61
2023-04-25T09:22:22.647Z,0.63
2023-04-25T09:23:22.617Z,0.65
2023-04-25T09:24:22.653Z,0.65
2023-04-25T09:25:22.693Z,0.64
2023-04-25T09:26:22.689Z,0.61
2023-04-25T09:27:22.730Z,0.59
2023-04-25T09:28:22.752Z,0.61
2023-04-25T09:29:22.746Z,0.56
2023-04-25T09:30:22.800Z,0.49
2023-04-25T09:31:23.392Z,0.51
2023-04-25T09:32:22.979Z,0.49
2023-04-25T09:33:22.936Z,0.51
2023-04-25T09:34:22.899Z,0.56
2023-04-25T09:35:22.921Z,0.63
2023-04-25T09:36:22.950Z,0.71
2023-04-25T09:37:22.980Z,0.73
2023-04-25T09:38:22.974Z,0.76
2023-04-25T09:39:23.042Z,0.80
2023-04-25T09:40:23.032Z,0.91
2023-04-25T09:41:23.273Z,0.83
2023-04-25T09:42:23.110Z,0.90
2023-04-25T09:43:23.159Z,1.08
2023-04-25T09:44:23.155Z,0.91
2023-04-25T09:45:23.179Z,0.88
2023-04-25T09:46:23.271Z,0.89
2023-04-25T09:47:23.237Z,0.89
2023-04-25T09:48:23.243Z,0.75
2023-04-25T09:49:23.296Z,0.92
2023-04-25T09:50:23.299Z,0.87
2023-04-25T09:51:23.792Z,0.91
2023-04-25T09:52:25.613Z,0.88
2023-04-25T09:53:23.384Z,1.10
2023-04-25T09:54:23.422Z,1.21
2023-04-25T09:55:23.428Z,1.10
2023-04-25T09:56:23.502Z,1.28
2023-04-25T09:57:23.782Z,1.14
2023-04-25T09:58:23.570Z,0.96
2023-04-25T09:59:23.576Z,0.98
2023-04-25T10:00:23.597Z,0.94
2023-04-25T10:01:23.660Z,0.86
2023-04-25T10:02:23.696Z,0.93
2023-04-25T10:03:23.866Z,1.02
2023-04-25T10:04:23.842Z,0.99
2023-04-25T10:05:23.777Z,0.97
2023-04-25T10:06:23.777Z,1.04
2023-04-25T10:07:24.251Z,1.06
2023-04-25T10:08:23.864Z,1.16
2023-04-25T10:09:23.869Z,1.00
2023-04-25T10:10:24.743Z,0.98
2023-04-25T10:11:24.044Z,0.94
2023-04-25T10:12:24.019Z,0.91
2023-04-25T10:13:24.031Z,0.89
2023-04-25T10:14:24.105Z,0.81
2023-04-25T10:15:24.137Z,0.84
2023-04-25T10:16:24.171Z,0.93
2023-04-25T10:17:24.225Z,0.87
2023-04-25T10:18:24.172Z,0.91
2023-04-25T10:19:24.198Z,0.95
2023-04-25T10:20:24.247Z,0.91
2023-04-25T10:21:24.281Z,0.92
2023-04-25T10:22:24.349Z,0.90
2023-04-25T10:23:24.332Z,0.82
2023-04-25T10:24:24.357Z,0.82
2023-04-25T10:25:24.399Z,0.73
2023-04-25T10:26:24.419Z,0.75
2023-04-25T10:27:24.449Z,0.72
2023-04-25T10:28:24.469Z,0.68
2023-04-25T10:29:24.501Z,0.64
2023-04-25T10:30:24.533Z,0.56
2023-04-25T10:31:24.701Z,0.56
2023-04-25T10:32:24.577Z,0.60
2023-04-25T10:33:24.597Z,0.54
2023-04-25T10:34:24.656Z,0.57
2023-04-25T10:35:24.720Z,0.56
2023-04-25T10:36:24.776Z,0.60
2023-04-25T10:37:24.788Z,0.69
2023-04-25T10:38:24.729Z,0.74
2023-04-25T10:39:24.773Z,0.69
2023-04-25T10:40:24.774Z,1.54
2023-04-25T10:41:24.830Z,1.55
2023-04-25T10:42:25.301Z,2.16
2023-04-25T10:43:24.874Z,2.20
2023-04-25T10:44:24.908Z,1.29
2023-04-25T10:45:24.947Z,1.16
2023-04-25T10:46:25.016Z,1.10
2023-04-25T10:47:25.045Z,0.86
2023-04-25T10:48:25.029Z,0.76
2023-04-25T10:49:25.065Z,0.72
2023-04-25T10:50:25.090Z,0.72
2023-04-25T10:51:25.171Z,0.57
2023-04-25T10:52:25.185Z,0.54
2023-04-25T10:53:25.218Z,0.50
2023-04-25T10:54:25.224Z,0.49
2023-04-25T10:55:25.276Z,0.54
2023-04-25T10:56:25.305Z,0.55
2023-04-25T10:57:25.348Z,0.52
2023-04-25T10:58:25.441Z,0.53
2023-04-25T10:59:25.388Z,0.50
2023-04-25T11:00:26.025Z,0.51
2023-04-25T11:01:26.534Z,0.50
2023-04-25T11:02:25.622Z,0.47
2023-04-25T11:03:25.733Z,0.46
2023-04-25T11:04:25.995Z,0.40
2023-04-25T11:05:25.644Z,0.38
2023-04-25T11:06:25.673Z,0.45
2023-04-25T11:07:25.717Z,0.56
2023-04-25T11:08:25.776Z,0.57
2023-04-25T11:09:25.811Z,0.53
2023-04-25T11:10:25.876Z,0.50
2023-04-25T11:11:25.970Z,0.50
2023-04-25T11:12:26.084Z,0.53
2023-04-25T11:13:26.173Z,0.58
2023-04-25T11:14:26.274Z,0.58
2023-04-25T11:15:26.468Z,0.65
2023-04-25T11:16:28.317Z,0.61
2023-04-25T11:17:26.691Z,0.56
2023-04-25T11:18:26.726Z,0.59
2023-04-25T11:19:26.765Z,0.60
2023-04-25T11:20:26.858Z,0.61
2023-04-25T11:21:26.940Z,0.60
2023-04-25T11:22:27.067Z,0.53
2023-04-25T11:23:27.124Z,0.55
2023-04-25T11:24:27.254Z,0.66
2023-04-25T11:25:27.361Z,0.67
2023-04-25T11:26:27.446Z,0.59
2023-04-25T11:27:27.821Z,0.64
2023-04-25T11:28:27.659Z,0.60
2023-04-25T11:29:27.688Z,0.69
2023-04-25T11:30:27.825Z,1.03
2023-04-25T11:31:27.919Z,1.09
2023-04-25T11:32:28.346Z,1.45
2023-04-25T11:33:28.099Z,1.50
2023-04-25T11:34:28.073Z,2.00
2023-04-25T11:35:28.129Z,2.22
2023-04-25T11:36:28.192Z,2.24
2023-04-25T11:37:28.342Z,2.55
2023-04-25T11:38:29.428Z,2.34
2023-04-25T11:39:28.338Z,1.91
2023-04-25T11:40:28.365Z,2.05
2023-04-25T11:41:28.420Z,1.74
2023-04-25T11:42:28.534Z,1.89
2023-04-25T11:43:28.522Z,2.07
2023-04-25T11:44:28.550Z,2.12
2023-04-25T11:45:28.597Z,1.90
2023-04-25T11:46:28.814Z,2.01
2023-04-25T11:47:28.762Z,2.00
2023-04-25T11:48:28.746Z,2.00
2023-04-25T11:49:28.942Z,1.89
2023-04-25T11:50:28.837Z,1.78
2023-04-25T11:51:28.910Z,1.99
2023-04-25T11:52:28.949Z,2.00
2023-04-25T11:53:29.013Z,1.71
2023-04-25T11:54:29.074Z,1.64
2023-04-25T11:55:29.104Z,1.70
2023-04-25T11:56:29.150Z,1.49
2023-04-25T11:57:29.194Z,1.56
2023-04-25T11:58:29.319Z,1.68
2023-04-25T11:59:29.319Z,1.71
2023-04-25T12:00:29.387Z,1.58
2023-04-25T12:01:30.546Z,1.72
2023-04-25T12:02:30.738Z,1.72
2023-04-25T12:03:29.650Z,1.73
2023-04-25T12:04:29.868Z,1.77
2023-04-25T12:05:32.197Z,1.86
2023-04-25T12:06:29.597Z,1.73
2023-04-25T12:07:29.609Z,1.75
2023-04-25T12:08:29.607Z,1.76
2023-04-25T12:09:29.638Z,1.83
2023-04-25T12:10:29.692Z,1.85
2023-04-25T12:11:29.699Z,1.89
2023-04-25T12:12:29.828Z,1.84
2023-04-25T12:13:29.766Z,1.54
2023-04-25T12:14:29.842Z,1.48
2023-04-25T12:15:29.856Z,1.59
2023-04-25T12:16:29.942Z,1.41
2023-04-25T12:17:29.908Z,1.35
2023-04-25T12:18:29.927Z,1.24
2023-04-25T12:19:30.018Z,1.08
2023-04-25T12:20:29.998Z,1.04
2023-04-25T12:21:29.997Z,0.95
2023-04-25T12:22:30.337Z,0.94
2023-04-25T12:23:30.063Z,0.92
2023-04-25T12:24:30.074Z,0.92
2023-04-25T12:25:30.154Z,0.86
2023-04-25T12:26:30.146Z,0.86
2023-04-25T12:27:30.331Z,0.93
2023-04-25T12:28:30.229Z,0.95
2023-04-25T12:29:34.713Z,0.98
2023-04-25T12:30:31.281Z,0.95
2023-04-25T12:31:30.343Z,0.80
2023-04-25T12:32:30.316Z,0.84
2023-04-25T12:33:30.344Z,0.84
2023-04-25T12:34:30.388Z,0.88
2023-04-25T12:35:30.390Z,0.86
2023-04-25T12:36:30.438Z,0.85
2023-04-25T12:37:30.464Z,0.73
2023-04-25T12:38:30.465Z,0.73
2023-04-25T12:39:30.494Z,0.67
2023-04-25T12:40:30.520Z,0.70
2023-04-25T12:41:30.577Z,0.69
2023-04-25T12:42:30.579Z,0.63
2023-04-25T12:43:30.585Z,0.57
2023-04-25T12:44:30.643Z,0.64
2023-04-25T12:45:30.661Z,0.65
2023-04-25T12:46:30.705Z,0.67
2023-04-25T12:47:30.750Z,0.72
2023-04-25T12:48:30.719Z,0.73
2023-04-25T12:49:30.780Z,0.78
2023-04-25T12:50:30.806Z,0.66
2023-04-25T12:51:30.862Z,0.62
2023-04-25T12:52:30.887Z,0.51
2023-04-25T12:53:30.918Z,0.50
2023-04-25T12:54:30.919Z,0.52
2023-04-25T12:55:30.983Z,0.52
2023-04-25T12:56:31.015Z,0.58
2023-04-25T12:57:31.082Z,0.74
2023-04-25T12:58:31.110Z,1.12
2023-04-25T12:59:31.139Z,1.63
2023-04-25T13:00:31.206Z,1.99
2023-04-25T13:01:31.656Z,2.57
2023-04-25T13:02:31.415Z,3.27
2023-04-25T13:03:31.469Z,4.14
2023-04-25T13:04:31.508Z,6.49
2023-04-25T13:05:31.429Z,8.19
2023-04-25T13:06:31.593Z,9.73
2023-04-25T13:07:32.486Z,10.09
2023-04-25T13:08:31.682Z,14.44
2023-04-25T13:09:31.688Z,25.31
2023-04-25T13:10:31.752Z,34.81
2023-04-25T13:11:32.044Z,43.38
2023-04-25T13:12:31.939Z,53.88
2023-04-25T13:13:31.948Z,83.15
2023-04-25T13:14:32.040Z,80.67
2023-04-25T13:15:32.089Z,98.57
2023-04-25T13:16:32.235Z,120.64
2023-04-25T13:17:32.268Z,142.77
2023-04-25T13:18:32.380Z,153.42
2023-04-25T13:19:32.370Z,154.77
2023-04-25T13:20:32.473Z,163.59